createdAt,value
2022-11-06T00:04:00.854Z,10.63
2022-11-06T00:09:08.026Z,11.45
2022-11-06T00:14:09.471Z,11.12
2022-11-06T00:19:16.367Z,11.07
2022-11-06T00:24:19.989Z,10.57
2022-11-06T00:29:20.887Z,10.52
2022-11-06T00:34:21.753Z,10.88
2022-11-06T00:39:22.484Z,10.98
2022-11-06T00:44:23.222Z,11.50
2022-11-06T00:49:23.985Z,11.95
2022-11-06T00:54:28.296Z,11.60
2022-11-06T00:59:29.016Z,11.75
2022-11-06T01:04:32.333Z,10.85
2022-11-06T01:14:38.582Z,9.70
2022-11-06T01:19:39.561Z,10.50
2022-11-06T01:24:45.917Z,12.30
2022-11-06T01:29:46.698Z,12.20
2022-11-06T01:34:50.229Z,13.50
2022-11-06T01:39:51.166Z,11.85
2022-11-06T01:46:44.527Z,11.07
2022-11-06T01:51:57.013Z,11.18
2022-11-06T01:56:59.831Z,11.63
2022-11-06T02:02:01.067Z,12.23
2022-11-06T02:07:03.839Z,11.55
2022-11-06T02:12:25.744Z,11.57
2022-11-06T02:18:18.879Z,10.98
2022-11-06T02:23:42.520Z,12.20
2022-11-06T02:28:52.143Z,11.63
2022-11-06T02:34:01.959Z,12.52
2022-11-06T02:39:13.858Z,13.35
2022-11-06T02:44:19.728Z,12.15
2022-11-06T02:51:20.851Z,12.57
2022-11-06T02:56:28.523Z,12.88
2022-11-06T03:01:34.257Z,14.30
2022-11-06T03:06:41.203Z,13.68
2022-11-06T03:11:58.232Z,12.63
2022-11-06T03:17:08.424Z,13.98
2022-11-06T03:22:21.420Z,12.98
2022-11-06T03:27:31.497Z,12.73
2022-11-06T03:32:58.894Z,12.70
2022-11-06T03:38:08.833Z,14.30
2022-11-06T03:43:17.478Z,14.10
2022-11-06T03:48:28.481Z,14.50
2022-11-06T03:53:47.332Z,15.80
2022-11-06T03:58:49.632Z,14.40
2022-11-06T04:03:58.055Z,16.03
2022-11-06T04:09:23.221Z,15.02
2022-11-06T04:14:32.755Z,13.60
2022-11-06T04:19:33.524Z,14.82
2022-11-06T04:28:14.866Z,14.63
2022-11-06T04:33:51.392Z,12.30
2022-11-06T04:39:11.795Z,14.55
2022-11-06T04:44:28.476Z,14.93
2022-11-06T04:49:33.474Z,13.15
2022-11-06T04:54:44.036Z,14.05
2022-11-06T04:59:44.995Z,14.95
2022-11-06T05:04:49.261Z,15.70
2022-11-06T05:09:49.998Z,16.42
2022-11-06T05:14:54.661Z,15.93
2022-11-06T05:19:55.466Z,16.73
2022-11-06T05:24:56.349Z,14.52
2022-11-06T05:30:00.241Z,16.08
2022-11-06T05:35:04.061Z,16.40
2022-11-06T05:40:09.336Z,14.57
2022-11-06T05:45:12.233Z,14.87
2022-11-06T05:50:16.422Z,14.25
2022-11-06T05:55:17.281Z,14.77
2022-11-06T06:00:18.181Z,14.70
2022-11-06T06:05:18.942Z,14.60
2022-11-06T06:10:22.530Z,14.80
2022-11-06T06:15:23.254Z,15.80
2022-11-06T06:20:25.483Z,15.18
2022-11-06T06:25:28.130Z,15.98
2022-11-06T06:30:31.761Z,14.82
2022-11-06T06:35:33.850Z,14.05
2022-11-06T06:40:34.825Z,13.98
2022-11-06T06:45:35.571Z,15.10
2022-11-06T06:50:39.735Z,13.65
2022-11-06T06:55:44.456Z,12.93
2022-11-06T07:00:57.215Z,12.68
2022-11-06T07:06:01.072Z,11.07
2022-11-06T07:11:04.723Z,11.90
2022-11-06T07:16:08.018Z,12.00
2022-11-06T07:21:14.927Z,10.68
2022-11-06T07:26:15.870Z,9.73
2022-11-06T07:31:19.362Z,9.55
2022-11-06T07:36:20.098Z,9.38
2022-11-06T07:41:20.814Z,9.20
2022-11-06T07:46:21.586Z,8.43
2022-11-06T07:51:22.422Z,7.72
2022-11-06T07:56:23.217Z,6.72
2022-11-06T08:01:24.318Z,7.03
2022-11-06T08:06:25.444Z,5.90
2022-11-06T08:11:32.394Z,7.35
2022-11-06T08:16:33.232Z,6.70
2022-11-06T08:21:37.846Z,5.87
2022-11-06T08:26:41.630Z,5.93
2022-11-06T08:31:42.925Z,5.87
2022-11-06T08:36:49.253Z,7.22
2022-11-06T08:41:56.548Z,6.45
2022-11-06T08:46:57.638Z,6.32
2022-11-06T08:52:00.199Z,4.35
2022-11-06T08:57:03.797Z,4.63
2022-11-06T09:02:15.680Z,4.65
2022-11-06T09:07:16.722Z,6.00
2022-11-06T09:12:20.782Z,7.60
2022-11-06T09:17:27.251Z,7.70
2022-11-06T09:22:31.387Z,6.97
2022-11-06T09:27:32.216Z,7.60
2022-11-06T09:32:32.969Z,7.22
2022-11-06T09:37:35.453Z,8.52
2022-11-06T09:45:52.303Z,8.83
2022-11-06T09:51:14.157Z,6.22
2022-11-06T09:56:25.008Z,6.18
2022-11-06T10:01:37.824Z,6.25
2022-11-06T10:06:41.577Z,5.55
2022-11-06T10:11:58.453Z,5.87
2022-11-06T10:20:40.575Z,6.10
2022-11-06T10:26:18.335Z,5.72
2022-11-06T10:31:41.928Z,5.90
2022-11-06T10:37:19.672Z,6.00
2022-11-06T10:42:33.821Z,5.65
2022-11-06T10:47:44.878Z,7.20
2022-11-06T10:53:03.052Z,8.23
2022-11-06T10:58:16.703Z,8.57
2022-11-06T11:03:33.699Z,9.15
2022-11-06T11:08:52.367Z,8.98
2022-11-06T11:14:13.728Z,9.63
2022-11-06T11:19:40.606Z,10.18
2022-11-06T11:25:07.020Z,11.52
2022-11-06T11:30:38.216Z,12.35
2022-11-06T11:35:39.760Z,12.02
2022-11-06T11:40:40.926Z,11.23
2022-11-06T11:45:41.888Z,11.48
2022-11-06T11:50:43.445Z,12.73
2022-11-06T11:55:47.243Z,11.57
2022-11-06T12:01:04.523Z,10.63
2022-11-06T12:06:11.947Z,9.88
2022-11-06T12:11:19.974Z,9.90
2022-11-06T12:16:20.956Z,11.07
2022-11-06T12:21:31.353Z,10.40
2022-11-06T12:26:37.788Z,10.52
2022-11-06T12:31:53.633Z,10.15
2022-11-06T12:37:10.132Z,11.40
2022-11-06T12:42:18.603Z,10.98
2022-11-06T12:47:36.753Z,12.07
2022-11-06T12:53:07.371Z,12.82
2022-11-06T12:59:12.511Z,12.25
2022-11-06T13:04:31.835Z,12.00
2022-11-06T13:09:45.814Z,12.52
2022-11-06T13:22:22.030Z,13.00
2022-11-06T13:29:18.117Z,14.75
2022-11-06T13:34:29.996Z,15.18
2022-11-06T13:39:36.669Z,15.25
2022-11-06T13:44:38.200Z,16.17
2022-11-06T13:50:25.540Z,15.05
2022-11-06T13:57:02.643Z,20.95
2022-11-06T14:03:45.839Z,25.55
2022-11-06T14:09:03.475Z,19.90
2022-11-06T14:14:13.670Z,14.40
2022-11-06T14:19:29.608Z,11.48
2022-11-06T14:24:38.889Z,11.48
2022-11-06T14:29:53.945Z,11.43
2022-11-06T14:34:54.689Z,11.77
2022-11-06T14:40:05.944Z,11.40
2022-11-06T14:45:20.166Z,11.85
2022-11-06T14:51:26.337Z,11.90
2022-11-06T14:56:33.635Z,11.70
2022-11-06T15:01:37.512Z,12.37
2022-11-06T15:06:42.929Z,11.85
2022-11-06T15:12:17.026Z,11.93
2022-11-06T15:17:21.116Z,11.48
2022-11-06T15:22:39.203Z,10.68
2022-11-06T15:27:52.445Z,10.10
2022-11-06T15:32:54.320Z,10.48
2022-11-06T15:38:09.340Z,9.15
2022-11-06T15:44:12.388Z,9.70
2022-11-06T15:49:19.304Z,9.52
2022-11-06T15:54:36.039Z,7.78
2022-11-06T15:59:39.372Z,7.15
2022-11-06T16:04:44.377Z,7.40
2022-11-06T16:09:57.233Z,7.10
2022-11-06T16:14:58.231Z,7.07
2022-11-06T16:20:13.291Z,9.20
2022-11-06T16:25:18.392Z,7.12
2022-11-06T16:30:25.760Z,8.00
2022-11-06T16:35:35.522Z,7.10
2022-11-06T16:40:49.544Z,6.97
2022-11-06T16:46:07.259Z,7.37
2022-11-06T16:51:30.428Z,7.50
2022-11-06T16:56:34.605Z,7.28
2022-11-06T17:01:38.719Z,8.00
2022-11-06T17:06:43.651Z,7.12
2022-11-06T17:11:50.061Z,7.32
2022-11-06T17:17:06.389Z,7.90
2022-11-06T17:22:10.686Z,8.88
2022-11-06T17:27:14.496Z,9.35
2022-11-06T17:32:15.246Z,8.85
2022-11-06T17:37:17.846Z,10.00
2022-11-06T17:42:22.487Z,9.00
2022-11-06T17:47:23.521Z,10.15
2022-11-06T17:52:24.485Z,10.07
2022-11-06T17:57:28.138Z,10.55
2022-11-06T18:02:59.023Z,9.50
2022-11-06T18:08:01.250Z,13.15
2022-11-06T18:13:02.050Z,12.30
2022-11-06T18:18:07.133Z,10.70
2022-11-06T18:23:07.867Z,8.57
2022-11-06T18:28:09.431Z,8.20
2022-11-06T18:33:10.148Z,8.95
2022-11-06T18:38:17.956Z,8.63
2022-11-06T18:43:19.238Z,7.35
2022-11-06T18:48:21.892Z,8.48
2022-11-06T18:53:23.330Z,7.90
2022-11-06T18:58:28.109Z,6.30
2022-11-06T19:03:29.110Z,6.55
2022-11-06T19:08:31.009Z,7.07
2022-11-06T19:13:31.892Z,5.45
2022-11-06T19:18:38.990Z,8.15
2022-11-06T19:23:42.179Z,6.47
2022-11-06T19:28:43.856Z,5.05
2022-11-06T19:33:57.324Z,6.18
2022-11-06T19:38:58.968Z,6.47
2022-11-06T19:44:04.097Z,5.30
2022-11-06T19:49:06.834Z,4.53
2022-11-06T19:54:08.890Z,5.37
2022-11-06T19:59:12.064Z,11.98
2022-11-06T20:04:13.528Z,11.90
2022-11-06T20:09:14.444Z,7.40
2022-11-06T20:14:17.804Z,8.93
2022-11-06T20:19:18.722Z,6.97
2022-11-06T20:24:19.584Z,5.62
2022-11-06T20:29:23.597Z,4.80
2022-11-06T20:34:24.857Z,3.60
2022-11-06T20:39:25.846Z,3.70
2022-11-06T20:44:26.629Z,3.42
2022-11-06T20:49:28.108Z,3.30
2022-11-06T20:54:28.946Z,3.62
2022-11-06T20:59:30.381Z,3.45
2022-11-06T21:04:31.390Z,4.22
2022-11-06T21:09:39.295Z,3.40
2022-11-06T21:14:43.099Z,3.72
2022-11-06T21:19:44.488Z,3.20
2022-11-06T21:24:45.264Z,3.67
2022-11-06T21:29:56.319Z,3.10
2022-11-06T21:35:00.221Z,3.55
2022-11-06T21:40:04.225Z,4.40
2022-11-06T21:45:05.672Z,3.50
2022-11-06T21:50:09.857Z,3.87
2022-11-06T21:55:29.164Z,4.45
2022-11-06T22:00:30.063Z,3.60
2022-11-06T22:05:31.089Z,3.62
2022-11-06T22:10:37.960Z,3.42
2022-11-06T22:15:42.072Z,4.18
2022-11-06T22:20:42.788Z,4.05
2022-11-06T22:25:43.536Z,4.00
2022-11-06T22:30:47.413Z,3.95
2022-11-06T22:35:48.127Z,4.30
2022-11-06T22:40:57.840Z,3.83
2022-11-06T22:46:00.275Z,4.43
2022-11-06T22:51:06.235Z,4.87
2022-11-06T22:56:14.577Z,4.32
2022-11-06T23:01:20.678Z,4.60
2022-11-06T23:06:22.885Z,4.25
2022-11-06T23:11:26.074Z,4.55
2022-11-06T23:16:51.273Z,5.28
2022-11-06T23:22:34.830Z,5.25
2022-11-06T23:27:38.671Z,5.57
2022-11-06T23:32:46.248Z,5.95
2022-11-06T23:38:06.576Z,5.97
2022-11-06T23:48:12.508Z,5.93
2022-11-06T23:53:15.445Z,6.95
